Time,TemperatureF,DewpointF,PressureIn,WindDirection,WindDirectionDegrees,WindSpeedMPH,WindSpeedGustMPH,Humidity,HourlyPrecipIn,Conditions,Clouds,dailyrainin,SoftwareType,DateUTC
2017-02-25 00:28:00,30.0,6.0,-100.00,NW,308,6.0,16.0,35,-99.99,,,-99.99,,2017-02-25 08:28:00,
2017-02-25 00:58:00,30.0,6.0,-100.00,NW,308,6.0,16.0,35,-99.99,,,-99.99,,2017-02-25 08:58:00,
2017-02-25 01:00:00,30.0,4.0,-100.00,WNW,298,6.0,14.0,33,-99.99,,,-99.99,,2017-02-25 09:00:00,
2017-02-25 01:38:00,30.0,4.0,-100.00,WNW,298,6.0,14.0,33,-99.99,,,-99.99,,2017-02-25 09:38:00,
2017-02-25 02:00:00,29.0,4.0,-100.00,WNW,301,6.0,16.0,34,-99.99,,,-99.99,,2017-02-25 10:00:00,
2017-02-25 02:32:00,29.0,4.0,-100.00,WNW,301,6.0,16.0,34,-99.99,,,-99.99,,2017-02-25 10:32:00,
2017-02-25 03:00:00,29.0,4.0,-100.00,NW,306,6.0,15.0,33,-99.99,,,-99.99,,2017-02-25 11:00:00,
2017-02-25 03:28:00,29.0,4.0,-100.00,NW,306,6.0,15.0,33,-99.99,,,-99.99,,2017-02-25 11:28:00,
2017-02-25 03:49:00,29.0,4.0,-100.00,NW,306,6.0,15.0,33,-99.99,,,-99.99,,2017-02-25 11:49:00,
2017-02-25 04:00:00,29.0,1.0,-100.00,WNW,298,7.0,19.0,30,-99.99,,,-99.99,,2017-02-25 12:00:00,
2017-02-25 04:28:00,29.0,1.0,-100.00,WNW,298,7.0,19.0,30,-99.99,,,-99.99,,2017-02-25 12:28:00,
2017-02-25 04:41:00,29.0,1.0,-100.00,WNW,298,7.0,19.0,30,-99.99,,,-99.99,,2017-02-25 12:41:00,
2017-02-25 05:00:00,31.0,3.0,-100.00,WNW,292,9.0,20.0,30,-99.99,,,-99.99,,2017-02-25 13:00:00,
2017-02-25 05:29:00,31.0,3.0,-100.00,WNW,292,9.0,20.0,30,-99.99,,,-99.99,,2017-02-25 13:29:00,
2017-02-25 06:00:00,30.0,4.0,-100.00,WNW,296,7.0,20.0,32,-99.99,,,-99.99,,2017-02-25 14:00:00,
2017-02-25 06:32:00,30.0,4.0,-100.00,WNW,296,7.0,-999.0,32,-99.99,,,-99.99,,2017-02-25 14:32:00,
2017-02-25 06:49:00,30.0,4.0,-100.00,WNW,296,7.0,20.0,32,-99.99,,,-99.99,,2017-02-25 14:49:00,
2017-02-25 07:00:00,30.0,2.0,-100.00,WNW,300,5.0,16.0,29,-99.99,,,-99.99,,2017-02-25 15:00:00,
2017-02-25 07:28:00,30.0,2.0,-100.00,WNW,300,5.0,16.0,29,-99.99,,,-99.99,,2017-02-25 15:28:00,
2017-02-25 08:31:00,34.0,4.0,-100.00,NW,305,4.0,16.0,27,-99.99,,,-99.99,,2017-02-25 16:31:00,
2017-02-25 08:58:00,34.0,4.0,-100.00,NW,305,4.0,-999.0,27,-99.99,,,-99.99,,2017-02-25 16:58:00,
2017-02-25 09:00:00,39.0,5.0,-100.00,NW,306,4.0,17.0,24,-99.99,,,-99.99,,2017-02-25 17:00:00,
2017-02-25 09:29:00,39.0,5.0,-100.00,NW,306,4.0,17.0,24,-99.99,,,-99.99,,2017-02-25 17:29:00,
2017-02-25 10:00:00,41.0,4.0,-100.00,NW,318,6.0,18.0,21,-99.99,,,-99.99,,2017-02-25 18:00:00,
2017-02-25 10:32:00,41.0,4.0,-100.00,NW,318,6.0,18.0,21,-99.99,,,-99.99,,2017-02-25 18:32:00,
2017-02-25 10:49:00,41.0,4.0,-100.00,NW,318,6.0,18.0,21,-99.99,,,-99.99,,2017-02-25 18:49:00,
2017-02-25 11:29:00,43.0,5.0,-100.00,NW,321,6.0,-999.0,20,-99.99,,,-99.99,,2017-02-25 19:29:00,
2017-02-25 12:00:00,46.0,7.0,-100.00,West,278,8.0,20.0,20,-99.99,,,-99.99,,2017-02-25 20:00:00,
2017-02-25 13:32:00,44.0,8.0,-100.00,NW,317,2.0,-999.0,22,-99.99,,,-99.99,,2017-02-25 21:32:00,
2017-02-25 13:58:00,44.0,8.0,-100.00,NW,317,2.0,23.0,22,-99.99,,,-99.99,,2017-02-25 21:58:00,
2017-02-25 14:00:00,42.0,7.0,-100.00,NW,305,4.0,16.0,23,-99.99,,,-99.99,,2017-02-25 22:00:00,
2017-02-25 14:29:00,42.0,7.0,-100.00,NW,305,4.0,16.0,23,-99.99,,,-99.99,,2017-02-25 22:29:00,
2017-02-25 15:49:00,40.0,6.0,-100.00,NW,315,3.0,13.0,24,-99.99,,,-99.99,,2017-02-25 23:49:00,